createdAt,value
2023-03-22T00:00:17.697Z,11.20
2023-03-22T00:02:47.894Z,11.20
2023-03-22T00:05:16.804Z,11.20
2023-03-22T00:07:45.516Z,11.10
2023-03-22T00:10:14.282Z,11.20
2023-03-22T00:12:42.919Z,11.20
2023-03-22T00:15:12.735Z,11.10
2023-03-22T00:17:42.178Z,11.10
2023-03-22T00:20:14.914Z,11.10
2023-03-22T00:22:43.639Z,11.10
2023-03-22T00:25:12.340Z,11.10
2023-03-22T00:27:41.291Z,11.10
2023-03-22T00:30:12.700Z,11.00
2023-03-22T00:32:42.896Z,11.10
2023-03-22T00:35:13.602Z,11.10
2023-03-22T00:37:42.420Z,11.10
2023-03-22T00:40:14.015Z,11.00
2023-03-22T00:42:43.311Z,11.00
2023-03-22T00:45:14.046Z,11.00
2023-03-22T00:47:42.770Z,11.10
2023-03-22T00:50:13.101Z,11.00
2023-03-22T00:52:41.769Z,11.00
2023-03-22T00:55:10.823Z,11.00
2023-03-22T00:57:39.746Z,10.90
2023-03-22T01:00:13.744Z,10.90
2023-03-22T01:02:43.241Z,10.90
2023-03-22T01:05:17.871Z,10.90
2023-03-22T01:07:46.780Z,10.90
2023-03-22T01:10:15.468Z,10.90
2023-03-22T01:12:44.891Z,10.80
2023-03-22T01:15:14.145Z,10.70
2023-03-22T01:17:43.392Z,10.80
2023-03-22T01:20:13.981Z,10.80
2023-03-22T01:22:45.264Z,10.70
2023-03-22T01:25:14.745Z,10.60
2023-03-22T01:27:43.639Z,10.70
2023-03-22T01:30:13.591Z,10.70
2023-03-22T01:32:42.397Z,10.60
2023-03-22T01:35:12.098Z,10.50
2023-03-22T01:37:44.414Z,10.40
2023-03-22T01:40:15.934Z,10.40
2023-03-22T01:42:44.864Z,10.40
2023-03-22T01:45:43.532Z,10.50
2023-03-22T01:48:34.621Z,10.40
2023-03-22T01:51:11.030Z,10.10
2023-03-22T01:53:58.824Z,10.10
2023-03-22T01:56:32.713Z,10.10
2023-03-22T01:59:02.915Z,10.10
2023-03-22T02:01:47.659Z,9.90
2023-03-22T02:04:21.220Z,9.90
2023-03-22T02:06:54.117Z,9.90
2023-03-22T02:09:24.452Z,9.90
2023-03-22T02:12:12.371Z,9.80
2023-03-22T02:15:01.215Z,9.60
2023-03-22T02:18:07.520Z,9.60
2023-03-22T02:21:30.330Z,9.70
2023-03-22T02:24:48.365Z,9.50
2023-03-22T02:28:05.070Z,9.60
2023-03-22T02:31:10.433Z,9.40
2023-03-22T02:34:25.799Z,9.60
2023-03-22T02:37:37.504Z,9.30
2023-03-22T02:40:16.486Z,9.30
2023-03-22T02:42:57.571Z,9.30
2023-03-22T02:45:35.558Z,9.30
2023-03-22T02:48:13.654Z,9.30
2023-03-22T02:50:52.886Z,9.20
2023-03-22T02:53:26.556Z,9.10
2023-03-22T02:56:03.018Z,9.20
2023-03-22T02:58:39.348Z,9.20
2023-03-22T03:01:18.020Z,9.10
2023-03-22T03:03:50.780Z,8.90
2023-03-22T03:06:25.804Z,9.10
2023-03-22T03:08:58.096Z,9.00
2023-03-22T03:11:30.740Z,9.10
2023-03-22T03:14:00.950Z,9.00
2023-03-22T03:16:35.229Z,8.80
2023-03-22T03:19:15.921Z,8.80
2023-03-22T03:21:55.906Z,8.80
2023-03-22T03:24:37.229Z,8.70
2023-03-22T03:27:17.119Z,8.70
2023-03-22T03:29:52.345Z,8.90
2023-03-22T03:32:28.402Z,8.70
2023-03-22T03:35:03.617Z,8.70
2023-03-22T03:37:39.967Z,8.40
2023-03-22T03:40:14.500Z,8.40
2023-03-22T03:42:51.720Z,8.40
2023-03-22T03:45:22.475Z,8.30
2023-03-22T03:47:57.152Z,8.20
2023-03-22T03:50:28.353Z,8.20
2023-03-22T03:52:58.555Z,8.10
2023-03-22T03:55:30.822Z,8.10
2023-03-22T03:58:01.072Z,8.00
2023-03-22T04:00:30.292Z,8.10
2023-03-22T04:03:19.706Z,8.20
2023-03-22T04:06:23.704Z,8.30
2023-03-22T04:08:58.360Z,8.30
2023-03-22T04:11:32.370Z,8.30
2023-03-22T04:14:05.076Z,8.30
2023-03-22T04:16:33.829Z,8.30
2023-03-22T04:19:02.745Z,8.40
2023-03-22T04:21:31.517Z,8.30
2023-03-22T04:24:02.986Z,8.10
2023-03-22T04:26:37.097Z,8.20
2023-03-22T04:29:27.512Z,8.10
2023-03-22T04:32:02.573Z,8.10
2023-03-22T04:34:43.788Z,8.00
2023-03-22T04:37:16.144Z,7.90
2023-03-22T04:39:55.571Z,8.00
2023-03-22T04:42:36.088Z,7.90
2023-03-22T04:45:16.158Z,8.00
2023-03-22T04:47:49.357Z,7.90
2023-03-22T04:50:18.499Z,7.80
2023-03-22T04:52:53.001Z,7.80
2023-03-22T04:55:22.087Z,7.80
2023-03-22T04:57:51.260Z,7.90
2023-03-22T05:00:22.365Z,7.80
2023-03-22T05:02:51.860Z,7.90
2023-03-22T05:05:32.335Z,7.80
2023-03-22T05:08:03.399Z,7.80
2023-03-22T05:10:33.371Z,7.80
2023-03-22T05:13:02.440Z,7.90
2023-03-22T05:15:35.849Z,7.80
2023-03-22T05:18:06.753Z,7.90
2023-03-22T05:20:37.688Z,7.90
2023-03-22T05:23:19.506Z,7.80
2023-03-22T05:25:54.380Z,7.80
2023-03-22T05:28:24.373Z,7.80
2023-03-22T05:31:11.920Z,7.80
2023-03-22T05:33:47.650Z,7.80
2023-03-22T05:36:21.056Z,7.80
2023-03-22T05:39:08.225Z,7.80
2023-03-22T05:41:37.485Z,7.90
2023-03-22T05:44:07.556Z,7.80
2023-03-22T05:46:40.966Z,7.90
2023-03-22T05:49:35.368Z,7.90
2023-03-22T05:52:06.143Z,7.90
2023-03-22T05:54:58.012Z,7.90
2023-03-22T05:57:27.355Z,7.90
2023-03-22T05:59:56.090Z,7.90
2023-03-22T06:02:34.159Z,7.90
2023-03-22T06:05:03.265Z,7.90
2023-03-22T06:07:33.591Z,8.00
2023-03-22T06:10:29.834Z,8.00
2023-03-22T06:12:58.761Z,7.90
2023-03-22T06:15:31.648Z,8.00
2023-03-22T06:18:11.090Z,8.10
2023-03-22T06:20:44.388Z,8.20
2023-03-22T06:23:20.491Z,8.20
2023-03-22T06:25:50.532Z,8.30
2023-03-22T06:28:20.289Z,8.30
2023-03-22T06:30:55.187Z,8.30
2023-03-22T06:33:41.693Z,8.30
2023-03-22T06:36:39.424Z,8.40
2023-03-22T06:39:15.597Z,8.40
2023-03-22T06:41:48.194Z,8.40
2023-03-22T06:44:17.647Z,8.50
2023-03-22T06:46:52.350Z,8.50
2023-03-22T06:49:40.680Z,8.60
2023-03-22T06:52:11.126Z,8.60
2023-03-22T06:54:40.513Z,8.60
2023-03-22T06:57:12.293Z,8.70
2023-03-22T06:59:41.298Z,8.60
2023-03-22T07:02:13.443Z,8.70
2023-03-22T07:04:48.722Z,8.80
2023-03-22T07:07:18.213Z,8.80
2023-03-22T07:09:47.413Z,8.90
2023-03-22T07:12:16.843Z,8.90
2023-03-22T07:14:45.938Z,8.90
2023-03-22T07:17:37.156Z,9.00
2023-03-22T07:20:09.508Z,9.00
2023-03-22T07:25:41.521Z,9.10
2023-03-22T07:28:23.988Z,9.10
2023-03-22T07:31:02.294Z,9.20
2023-03-22T07:33:35.060Z,9.20
2023-03-22T07:36:06.942Z,9.20
2023-03-22T07:38:36.193Z,9.20
2023-03-22T07:41:09.133Z,9.30
2023-03-22T07:44:02.414Z,9.40
2023-03-22T07:46:46.192Z,9.40
2023-03-22T07:49:30.314Z,9.50
2023-03-22T07:52:06.814Z,9.50
2023-03-22T07:54:36.192Z,9.60
2023-03-22T07:57:08.684Z,9.70
2023-03-22T07:59:44.248Z,9.80
2023-03-22T08:02:14.619Z,9.80
2023-03-22T08:04:53.369Z,9.90
2023-03-22T08:07:44.908Z,9.90
2023-03-22T08:10:16.271Z,10.10
2023-03-22T08:12:45.618Z,10.10
2023-03-22T08:15:22.544Z,10.40
2023-03-22T08:17:51.688Z,10.40
2023-03-22T08:20:30.632Z,10.50
2023-03-22T08:23:05.655Z,10.70
2023-03-22T08:26:03.518Z,10.80
2023-03-22T08:28:33.884Z,10.90
2023-03-22T08:31:02.843Z,11.00
2023-03-22T08:33:31.590Z,11.10
2023-03-22T08:36:10.089Z,11.20
2023-03-22T08:38:46.980Z,11.30
2023-03-22T08:41:18.706Z,11.50
2023-03-22T08:43:47.754Z,11.50
2023-03-22T08:46:18.132Z,11.50
2023-03-22T08:48:51.875Z,11.60
2023-03-22T08:51:28.362Z,11.80
2023-03-22T08:54:11.214Z,11.90
2023-03-22T08:57:10.369Z,11.90
2023-03-22T08:59:53.471Z,11.90
2023-03-22T09:02:27.640Z,11.90
2023-03-22T09:04:57.857Z,11.80
2023-03-22T09:07:27.521Z,11.90
2023-03-22T09:10:13.828Z,12.00
2023-03-22T09:12:45.364Z,12.20
2023-03-22T09:15:14.074Z,12.30
2023-03-22T09:17:47.277Z,12.30
2023-03-22T09:20:16.489Z,12.40
2023-03-22T09:22:47.969Z,12.40
2023-03-22T09:25:21.378Z,12.50
2023-03-22T09:27:51.622Z,12.50
2023-03-22T09:30:20.615Z,12.80
2023-03-22T09:32:49.407Z,13.00
2023-03-22T09:35:19.382Z,13.20
2023-03-22T09:38:03.749Z,13.60
2023-03-22T09:40:36.381Z,13.90
2023-03-22T09:43:10.435Z,14.30
2023-03-22T09:45:45.072Z,14.70
2023-03-22T09:48:19.460Z,14.70
2023-03-22T09:50:52.795Z,14.60
2023-03-22T09:53:25.791Z,14.60
2023-03-22T09:56:03.220Z,14.80
2023-03-22T09:58:39.696Z,14.80
2023-03-22T10:01:35.376Z,14.80
2023-03-22T10:04:31.233Z,14.60
2023-03-22T10:07:10.841Z,14.50
2023-03-22T10:09:55.484Z,14.40
2023-03-22T10:12:30.721Z,14.30
2023-03-22T10:15:07.834Z,14.10
2023-03-22T10:17:38.785Z,14.30
2023-03-22T10:20:20.543Z,14.90
2023-03-22T10:22:53.341Z,15.20
2023-03-22T10:25:34.189Z,15.20
2023-03-22T10:28:16.624Z,15.10
2023-03-22T10:30:53.486Z,15.10
2023-03-22T10:33:50.224Z,14.80
2023-03-22T10:36:25.565Z,14.80
2023-03-22T10:39:02.005Z,14.70
2023-03-22T10:41:33.646Z,14.60
2023-03-22T10:44:07.389Z,14.80
2023-03-22T10:46:43.072Z,15.10
2023-03-22T10:49:24.264Z,15.50
2023-03-22T10:51:57.889Z,15.90
2023-03-22T10:54:27.622Z,16.00
2023-03-22T10:56:56.574Z,16.30
2023-03-22T10:59:47.345Z,16.10
2023-03-22T11:02:22.861Z,15.80
2023-03-22T11:04:54.902Z,16.00
2023-03-22T11:07:36.603Z,16.50
2023-03-22T11:10:32.859Z,16.80
2023-03-22T11:13:23.183Z,17.30
2023-03-22T11:15:59.972Z,17.60
2023-03-22T11:18:34.000Z,17.80
2023-03-22T11:21:09.289Z,18.00
2023-03-22T11:23:44.217Z,18.10
2023-03-22T11:26:15.562Z,18.30
2023-03-22T11:28:50.452Z,18.50
2023-03-22T11:31:22.330Z,18.70
2023-03-22T11:33:59.662Z,19.10
2023-03-22T11:36:29.780Z,19.00
2023-03-22T11:39:01.309Z,19.10
2023-03-22T11:41:32.121Z,19.30
2023-03-22T11:44:06.725Z,19.40
2023-03-22T11:46:38.804Z,19.50
2023-03-22T11:49:15.703Z,19.50
2023-03-22T11:51:45.767Z,19.80
2023-03-22T11:54:28.496Z,19.70
2023-03-22T11:57:02.150Z,19.50
2023-03-22T11:59:40.074Z,19.50
2023-03-22T12:02:22.677Z,19.70
2023-03-22T12:05:01.899Z,20.00
2023-03-22T12:07:34.118Z,20.20
2023-03-22T12:10:12.687Z,20.20
2023-03-22T12:12:50.744Z,20.40
2023-03-22T12:15:24.938Z,20.20
2023-03-22T12:18:07.730Z,20.30
2023-03-22T12:20:46.870Z,20.00
2023-03-22T12:23:19.523Z,20.10
2023-03-22T12:25:54.680Z,20.50
2023-03-22T12:28:32.287Z,20.50
2023-03-22T12:31:03.911Z,20.40
2023-03-22T12:33:44.189Z,20.40
2023-03-22T12:36:19.953Z,20.50
2023-03-22T12:38:53.709Z,20.50
2023-03-22T12:41:32.660Z,20.60
2023-03-22T12:44:10.838Z,20.60
2023-03-22T12:46:51.383Z,20.60
2023-03-22T12:49:31.292Z,20.60
2023-03-22T12:52:15.976Z,20.40
2023-03-22T12:54:48.570Z,20.10
2023-03-22T12:57:18.647Z,20.20
2023-03-22T12:59:52.963Z,19.90
2023-03-22T13:02:32.169Z,19.70
2023-03-22T13:05:05.215Z,19.60
2023-03-22T13:07:41.150Z,19.50
2023-03-22T13:11:01.435Z,19.70
2023-03-22T13:13:50.087Z,19.70
2023-03-22T13:16:24.785Z,19.80
2023-03-22T13:19:04.445Z,19.60
2023-03-22T13:21:37.702Z,19.60
2023-03-22T13:24:24.073Z,19.60
2023-03-22T13:27:00.260Z,19.60
2023-03-22T13:29:39.033Z,19.70
2023-03-22T13:32:30.107Z,19.50
2023-03-22T13:34:59.121Z,19.40
2023-03-22T13:37:37.020Z,19.40
2023-03-22T13:40:15.006Z,19.60
2023-03-22T13:42:44.330Z,19.70
2023-03-22T13:45:33.794Z,19.80
2023-03-22T13:48:12.995Z,19.70
2023-03-22T13:50:42.933Z,19.60
2023-03-22T13:53:22.661Z,19.50
2023-03-22T13:57:12.563Z,19.70
2023-03-22T14:00:12.017Z,19.60
2023-03-22T14:02:45.651Z,19.40
2023-03-22T14:05:18.781Z,19.40
2023-03-22T14:07:54.526Z,19.20
2023-03-22T14:10:32.366Z,19.30
2023-03-22T14:13:33.813Z,19.30
2023-03-22T14:16:16.199Z,19.30
2023-03-22T14:18:49.827Z,19.30
2023-03-22T14:21:30.846Z,19.20
